createdAt,value
2018-06-11T00:01:37.407Z,20.20
2018-06-11T00:04:05.582Z,20.20
2018-06-11T00:06:33.702Z,20.20
2018-06-11T00:09:03.322Z,20.20
2018-06-11T00:11:31.431Z,20.20
2018-06-11T00:13:59.581Z,20.20
2018-06-11T00:16:27.741Z,20.20
2018-06-11T00:18:55.889Z,20.20
2018-06-11T00:21:24.039Z,20.20
2018-06-11T00:23:52.320Z,20.20
2018-06-11T00:26:20.451Z,20.20
2018-06-11T00:28:48.623Z,20.10
2018-06-11T00:31:16.809Z,20.10
2018-06-11T00:33:44.981Z,20.10
2018-06-11T00:36:13.281Z,20.10
2018-06-11T00:38:41.574Z,20.10
2018-06-11T00:41:09.738Z,20.10
2018-06-11T00:43:37.932Z,20.10
2018-06-11T00:46:06.134Z,20.00
2018-06-11T00:48:34.359Z,20.00
2018-06-11T00:51:04.325Z,20.00
2018-06-11T00:53:33.579Z,19.90
2018-06-11T00:56:11.385Z,20.00
2018-06-11T00:58:39.510Z,20.00
2018-06-11T01:01:07.703Z,19.90
2018-06-11T01:03:35.975Z,19.90
2018-06-11T01:06:04.110Z,19.80
2018-06-11T01:08:32.324Z,19.70
2018-06-11T01:11:00.485Z,19.60
2018-06-11T01:13:29.819Z,19.60
2018-06-11T01:15:58.048Z,19.40
2018-06-11T01:18:27.633Z,19.40
2018-06-11T01:20:56.041Z,19.40
2018-06-11T01:23:25.006Z,19.50
2018-06-11T01:25:53.369Z,19.40
2018-06-11T01:28:21.586Z,19.40
2018-06-11T01:30:50.097Z,19.30
2018-06-11T01:33:19.179Z,19.30
2018-06-11T01:35:47.333Z,19.30
2018-06-11T01:38:15.551Z,19.30
2018-06-11T01:40:43.971Z,19.30
2018-06-11T01:43:12.107Z,19.30
2018-06-11T01:45:40.896Z,19.30
2018-06-11T01:48:09.295Z,19.30
2018-06-11T01:50:37.486Z,19.30
2018-06-11T01:53:05.612Z,19.20
2018-06-11T01:55:33.872Z,19.30
2018-06-11T01:58:03.233Z,19.30
2018-06-11T02:00:31.438Z,19.30
2018-06-11T02:02:59.728Z,19.30
2018-06-11T02:05:29.050Z,19.30
2018-06-11T02:07:57.796Z,19.30
2018-06-11T02:10:27.061Z,19.20
2018-06-11T02:12:57.020Z,19.20
2018-06-11T02:15:25.458Z,19.20
2018-06-11T02:17:54.396Z,19.10
2018-06-11T02:20:22.661Z,19.10
2018-06-11T02:22:50.854Z,19.00
2018-06-11T02:25:20.016Z,19.00
2018-06-11T02:27:49.890Z,19.00
2018-06-11T02:30:20.555Z,19.10
2018-06-11T02:32:49.170Z,19.10
2018-06-11T02:35:17.404Z,19.10
2018-06-11T02:37:45.532Z,19.00
2018-06-11T02:40:14.818Z,18.90
2018-06-11T02:42:43.236Z,18.90
2018-06-11T02:45:11.595Z,18.80
2018-06-11T02:47:39.744Z,18.80
2018-06-11T02:50:08.634Z,18.80
2018-06-11T02:52:36.766Z,18.70
2018-06-11T02:55:04.922Z,18.70
2018-06-11T03:00:07.844Z,18.60
2018-06-11T03:02:36.072Z,18.60
2018-06-11T03:05:04.773Z,18.70
2018-06-11T03:07:32.974Z,18.70
2018-06-11T03:10:01.833Z,18.70
2018-06-11T03:12:30.000Z,18.80
2018-06-11T03:14:59.361Z,18.80
2018-06-11T03:17:27.598Z,18.90
2018-06-11T03:19:55.707Z,19.00
2018-06-11T03:24:52.038Z,19.00
2018-06-11T03:27:20.315Z,19.10
2018-06-11T03:29:48.552Z,19.10
2018-06-11T03:32:16.805Z,19.10
2018-06-11T03:34:45.115Z,19.10
2018-06-11T03:37:13.306Z,19.10
2018-06-11T03:39:41.456Z,19.10
2018-06-11T03:42:09.592Z,19.10
2018-06-11T03:44:39.138Z,19.00
2018-06-11T03:47:07.416Z,19.10
2018-06-11T03:49:35.609Z,19.10
2018-06-11T03:52:05.277Z,19.20
2018-06-11T03:54:33.964Z,19.20
2018-06-11T03:57:02.388Z,19.30
2018-06-11T03:59:30.964Z,19.40
2018-06-11T04:01:59.123Z,19.40
2018-06-11T04:04:27.290Z,19.60
2018-06-11T04:06:55.446Z,19.50
2018-06-11T04:09:23.602Z,19.50
2018-06-11T04:14:19.853Z,19.50
2018-06-11T04:16:48.121Z,19.50
2018-06-11T04:19:16.501Z,19.50
2018-06-11T04:21:44.677Z,19.60
2018-06-11T04:24:13.688Z,19.60
2018-06-11T04:26:42.413Z,19.60
2018-06-11T04:29:10.587Z,19.60
2018-06-11T04:31:38.719Z,19.60
2018-06-11T04:34:07.004Z,19.60
2018-06-11T04:36:36.181Z,19.60
2018-06-11T04:39:05.827Z,19.60
2018-06-11T04:41:33.955Z,19.60
2018-06-11T04:44:02.125Z,19.50
2018-06-11T04:48:58.632Z,19.40
2018-06-11T04:51:26.826Z,19.50
2018-06-11T04:53:54.938Z,19.50
2018-06-11T04:56:23.258Z,19.60
2018-06-11T04:58:53.176Z,19.70
2018-06-11T05:01:21.638Z,19.90
2018-06-11T05:06:17.912Z,19.90
2018-06-11T05:08:46.095Z,19.90
2018-06-11T05:11:14.237Z,19.90
2018-06-11T05:13:42.360Z,19.90
2018-06-11T05:16:11.239Z,20.00
2018-06-11T05:18:39.471Z,20.30
2018-06-11T05:21:07.701Z,20.50
2018-06-11T05:23:35.853Z,20.60
2018-06-11T05:26:04.659Z,20.60
2018-06-11T05:28:34.187Z,20.60
2018-06-11T05:31:02.460Z,20.60
2018-06-11T05:33:31.353Z,20.70
2018-06-11T05:36:01.377Z,20.80
2018-06-11T05:38:29.503Z,21.00
2018-06-11T05:41:00.025Z,21.10
2018-06-11T05:43:28.251Z,21.20
2018-06-11T05:45:56.381Z,21.10
2018-06-11T05:50:52.504Z,21.00
2018-06-11T05:53:20.733Z,20.90
2018-06-11T05:55:48.892Z,20.80
2018-06-11T05:58:17.091Z,20.70
2018-06-11T06:00:46.117Z,20.70
2018-06-11T06:03:14.253Z,20.80
2018-06-11T06:05:42.411Z,20.90
2018-06-11T06:08:10.609Z,20.80
2018-06-11T06:10:39.580Z,20.90
2018-06-11T06:13:08.011Z,20.90
2018-06-11T06:15:36.163Z,21.00
2018-06-11T06:18:04.322Z,21.10
2018-06-11T06:20:32.507Z,21.10
2018-06-11T06:23:00.707Z,21.10
2018-06-11T06:25:28.852Z,21.30
2018-06-11T06:27:57.056Z,21.20
2018-06-11T06:30:25.376Z,21.20
2018-06-11T06:32:53.699Z,21.10
2018-06-11T06:35:21.856Z,21.20
2018-06-11T06:37:50.093Z,21.30
2018-06-11T06:40:19.252Z,21.50
2018-06-11T06:42:47.426Z,21.60
2018-06-11T06:45:15.601Z,21.70
2018-06-11T06:47:43.916Z,21.90
2018-06-11T06:50:12.082Z,21.90
2018-06-11T06:52:40.258Z,22.10
2018-06-11T06:55:08.399Z,22.20
2018-06-11T06:57:36.574Z,22.30
2018-06-11T07:00:05.136Z,22.30
2018-06-11T07:02:33.333Z,22.40
2018-06-11T07:05:01.488Z,22.40
2018-06-11T07:09:58.340Z,22.10
2018-06-11T07:12:26.462Z,22.10
2018-06-11T07:14:54.728Z,22.30
2018-06-11T07:17:22.950Z,22.50
2018-06-11T07:19:51.187Z,22.60
2018-06-11T07:22:19.476Z,22.50
2018-06-11T07:24:47.640Z,22.30
2018-06-11T07:29:43.808Z,22.20
2018-06-11T07:32:12.642Z,22.20
2018-06-11T07:34:40.825Z,22.30
2018-06-11T07:37:10.133Z,22.50
2018-06-11T07:39:38.603Z,22.70
2018-06-11T07:42:08.367Z,22.90
2018-06-11T07:44:36.515Z,23.10
2018-06-11T07:47:04.690Z,23.00
2018-06-11T07:49:32.921Z,23.00
2018-06-11T07:52:01.647Z,23.00
2018-06-11T07:54:29.795Z,23.10
2018-06-11T07:56:58.731Z,23.00
2018-06-11T07:59:26.931Z,23.00
2018-06-11T08:01:55.099Z,23.10
2018-06-11T08:04:25.049Z,23.20
2018-06-11T08:06:53.219Z,23.40
2018-06-11T08:09:21.386Z,23.70
2018-06-11T08:14:18.499Z,24.20
2018-06-11T08:16:46.711Z,24.00
2018-06-11T08:19:14.884Z,23.70
2018-06-11T08:21:43.060Z,23.50
2018-06-11T08:24:11.255Z,23.30
2018-06-11T08:26:40.978Z,23.20
2018-06-11T08:29:09.173Z,23.40
2018-06-11T08:31:37.355Z,23.60
2018-06-11T08:34:05.635Z,24.00
2018-06-11T08:36:33.794Z,24.10
2018-06-11T08:39:01.992Z,24.00
2018-06-11T08:41:30.655Z,24.10
2018-06-11T08:43:58.887Z,24.40
2018-06-11T08:46:27.712Z,24.40
2018-06-11T08:48:55.919Z,24.50
2018-06-11T08:51:24.930Z,24.70
2018-06-11T08:53:53.091Z,24.90
2018-06-11T08:56:21.184Z,25.00
2018-06-11T08:58:49.339Z,24.90
2018-06-11T09:01:17.511Z,24.90
2018-06-11T09:03:45.692Z,25.00
2018-06-11T09:06:13.833Z,25.30
2018-06-11T09:08:42.299Z,25.30
2018-06-11T09:11:11.190Z,25.50
2018-06-11T09:13:39.326Z,25.70
2018-06-11T09:16:07.487Z,25.40
2018-06-11T09:18:35.811Z,25.20
2018-06-11T09:21:05.395Z,25.00
2018-06-11T09:23:33.582Z,24.70
2018-06-11T09:26:03.380Z,24.70
2018-06-11T09:28:31.814Z,24.80
2018-06-11T09:30:59.995Z,24.70
2018-06-11T09:33:28.606Z,24.60
2018-06-11T09:35:56.748Z,24.40
2018-06-11T09:40:52.900Z,24.00
2018-06-11T09:45:49.033Z,23.80
2018-06-11T09:48:18.626Z,23.40
2018-06-11T09:50:46.917Z,23.50
2018-06-11T09:53:15.250Z,23.60
2018-06-11T09:55:43.402Z,23.80
2018-06-11T09:58:11.626Z,23.70
2018-06-11T10:00:41.109Z,23.90
2018-06-11T10:03:10.350Z,24.20
2018-06-11T10:05:39.823Z,24.40
2018-06-11T10:08:07.936Z,24.40
2018-06-11T10:10:36.202Z,24.20
2018-06-11T10:13:06.568Z,24.00
2018-06-11T10:15:36.096Z,23.80
2018-06-11T10:20:32.256Z,23.70
2018-06-11T10:23:00.358Z,23.90
2018-06-11T10:25:28.571Z,24.10
2018-06-11T10:27:56.837Z,24.50
2018-06-11T10:30:25.038Z,24.80
2018-06-11T10:32:55.423Z,24.90
2018-06-11T10:35:23.802Z,24.70
2018-06-11T10:37:52.622Z,24.50
2018-06-11T10:40:21.580Z,24.20
2018-06-11T10:42:49.808Z,24.00
2018-06-11T10:45:18.152Z,23.90
2018-06-11T10:47:46.784Z,24.00
2018-06-11T10:50:14.948Z,24.20
2018-06-11T10:52:43.136Z,24.30
2018-06-11T10:55:12.728Z,24.50
2018-06-11T10:57:41.402Z,24.70
2018-06-11T11:00:10.911Z,25.00
2018-06-11T11:02:39.236Z,24.90
2018-06-11T11:05:07.374Z,24.60
2018-06-11T11:07:35.620Z,24.40
2018-06-11T11:12:32.327Z,24.40
2018-06-11T11:15:00.466Z,24.50
2018-06-11T11:17:28.653Z,24.50
2018-06-11T11:19:57.567Z,24.60
2018-06-11T11:22:25.717Z,24.50
2018-06-11T11:29:53.740Z,24.10
2018-06-11T11:32:22.014Z,24.10
2018-06-11T11:34:50.377Z,24.10
2018-06-11T11:37:18.663Z,24.10
2018-06-11T11:39:46.788Z,24.00
2018-06-11T11:42:14.927Z,23.90
2018-06-11T11:47:11.817Z,24.10
2018-06-11T11:49:40.865Z,24.20
2018-06-11T11:52:09.011Z,24.30
2018-06-11T11:54:37.561Z,24.30
2018-06-11T11:59:34.664Z,24.50
2018-06-11T12:02:02.878Z,24.50
2018-06-11T12:04:31.018Z,24.60
2018-06-11T12:06:59.151Z,24.60
2018-06-11T12:09:27.339Z,24.40
2018-06-11T12:11:56.046Z,24.40
2018-06-11T12:14:24.181Z,24.30
2018-06-11T12:16:52.433Z,24.20
2018-06-11T12:19:21.357Z,24.30
2018-06-11T12:21:50.014Z,24.40
2018-06-11T12:24:18.703Z,24.40
2018-06-11T12:26:46.997Z,24.30
2018-06-11T12:29:16.155Z,24.40
2018-06-11T12:31:46.253Z,24.40
2018-06-11T12:34:15.389Z,24.40
2018-06-11T12:36:44.221Z,24.40
2018-06-11T12:39:13.115Z,24.40
2018-06-11T12:41:41.962Z,24.50
2018-06-11T12:44:12.020Z,24.70
2018-06-11T12:46:40.229Z,24.90
2018-06-11T12:49:09.017Z,24.80
2018-06-11T12:51:38.061Z,24.60
2018-06-11T12:54:06.924Z,24.30
2018-06-11T12:56:35.902Z,24.20
2018-06-11T12:59:04.826Z,24.40
2018-06-11T13:01:34.285Z,24.50
2018-06-11T13:04:05.279Z,24.60
2018-06-11T13:09:01.912Z,24.80
2018-06-11T13:11:30.114Z,24.80
2018-06-11T13:13:58.585Z,24.70
2018-06-11T13:16:27.783Z,24.80
2018-06-11T13:18:55.926Z,25.00
2018-06-11T13:21:24.956Z,25.10
2018-06-11T13:23:53.388Z,25.10
2018-06-11T13:26:21.569Z,25.10
2018-06-11T13:31:17.874Z,24.90
2018-06-11T13:33:46.159Z,24.90
2018-06-11T13:36:14.454Z,25.00
2018-06-11T13:38:43.151Z,25.00
2018-06-11T13:41:12.070Z,25.00
2018-06-11T13:43:40.243Z,25.00
2018-06-11T13:46:08.384Z,25.00
2018-06-11T13:48:36.709Z,25.00
2018-06-11T13:51:04.906Z,25.00
2018-06-11T13:53:33.558Z,25.00
2018-06-11T13:56:02.290Z,25.00
2018-06-11T13:58:31.394Z,24.90
2018-06-11T14:00:59.524Z,24.80
2018-06-11T14:03:30.768Z,24.80
2018-06-11T14:05:58.952Z,24.80
2018-06-11T14:08:29.474Z,24.70
2018-06-11T14:10:57.640Z,24.80
2018-06-11T14:13:25.838Z,24.90
2018-06-11T14:15:54.097Z,25.00
2018-06-11T14:18:22.504Z,25.10
2018-06-11T14:20:50.643Z,25.20
2018-06-11T14:25:47.498Z,25.40
2018-06-11T14:28:15.726Z,25.30
2018-06-11T14:30:44.951Z,25.30
2018-06-11T14:33:13.116Z,25.40
2018-06-11T14:35:41.292Z,25.40
2018-06-11T14:40:38.046Z,25.30
2018-06-11T14:43:06.182Z,25.30
2018-06-11T14:45:34.380Z,25.20
2018-06-11T14:48:02.515Z,25.00
2018-06-11T14:50:30.714Z,24.80
2018-06-11T14:52:58.917Z,24.90
2018-06-11T14:55:27.093Z,25.00
2018-06-11T14:57:55.467Z,25.00
2018-06-11T15:00:23.645Z,25.10
2018-06-11T15:02:51.879Z,25.00
2018-06-11T15:05:20.050Z,24.90
2018-06-11T15:07:48.236Z,24.90
2018-06-11T15:10:16.491Z,24.80
2018-06-11T15:12:44.707Z,24.80
2018-06-11T15:15:12.877Z,24.80
2018-06-11T15:17:44.221Z,24.70
2018-06-11T15:25:09.050Z,24.70
2018-06-11T15:27:37.225Z,24.80
2018-06-11T15:30:05.439Z,24.60
2018-06-11T15:35:01.541Z,25.00
2018-06-11T15:37:29.721Z,25.00
2018-06-11T15:39:57.897Z,24.90
2018-06-11T15:42:26.128Z,24.80
2018-06-11T15:44:56.190Z,24.70
2018-06-11T15:47:24.529Z,24.70
2018-06-11T15:49:53.559Z,24.70
2018-06-11T15:52:22.126Z,24.80
2018-06-11T15:54:50.429Z,24.80
2018-06-11T15:57:18.875Z,24.90
2018-06-11T15:59:47.039Z,24.90
2018-06-11T16:04:43.215Z,24.90
2018-06-11T16:07:12.166Z,24.90
2018-06-11T16:09:40.546Z,24.90
2018-06-11T16:12:08.731Z,24.70
2018-06-11T16:14:38.120Z,24.60
2018-06-11T16:17:06.316Z,24.50
2018-06-11T16:22:02.555Z,24.40
2018-06-11T16:24:31.330Z,24.30
2018-06-11T16:26:59.607Z,24.30
2018-06-11T16:29:28.349Z,24.20
2018-06-11T16:34:25.306Z,24.30
2018-06-11T16:36:54.041Z,24.30
2018-06-11T16:39:22.228Z,24.30
2018-06-11T16:41:50.401Z,24.40
2018-06-11T16:44:18.817Z,24.40
2018-06-11T16:46:48.383Z,24.40
2018-06-11T16:51:45.071Z,24.40
2018-06-11T16:54:13.255Z,24.40
2018-06-11T16:56:41.729Z,24.50
2018-06-11T16:59:10.010Z,24.50
2018-06-11T17:01:38.462Z,24.50
2018-06-11T17:04:07.237Z,24.50
2018-06-11T17:06:35.596Z,24.40
2018-06-11T17:09:05.553Z,24.30
2018-06-11T17:11:33.841Z,24.30
2018-06-11T17:14:02.092Z,24.30
2018-06-11T17:16:31.418Z,24.30
2018-06-11T17:21:29.022Z,24.20
2018-06-11T17:23:57.705Z,24.10
2018-06-11T17:26:27.217Z,24.10
2018-06-11T17:28:57.853Z,24.10
2018-06-11T17:31:26.109Z,24.10
2018-06-11T17:33:54.365Z,24.10
2018-06-11T17:36:23.131Z,24.10
2018-06-11T17:38:51.323Z,24.10
2018-06-11T17:41:19.703Z,24.10
2018-06-11T17:43:48.039Z,23.90
2018-06-11T17:48:44.175Z,23.70
2018-06-11T17:51:12.515Z,23.60
2018-06-11T17:53:40.813Z,23.60
2018-06-11T17:56:09.227Z,23.60
2018-06-11T17:58:37.859Z,23.60
2018-06-11T18:01:06.390Z,23.50
2018-06-11T18:03:34.918Z,23.50
2018-06-11T18:06:03.157Z,23.40
2018-06-11T18:08:31.590Z,23.40
2018-06-11T18:11:00.219Z,23.40
2018-06-11T18:13:28.702Z,23.40
2018-06-11T18:15:57.877Z,23.30
2018-06-11T18:18:31.093Z,23.30
2018-06-11T18:20:59.300Z,23.20
2018-06-11T18:23:28.355Z,23.10
2018-06-11T18:25:56.600Z,23.20
2018-06-11T18:28:24.768Z,23.10
2018-06-11T18:31:00.457Z,23.10
2018-06-11T18:33:31.389Z,23.00
2018-06-11T18:36:00.051Z,23.00
2018-06-11T18:38:28.452Z,23.00
2018-06-11T18:40:57.585Z,23.00
2018-06-11T18:43:27.062Z,23.00
2018-06-11T18:45:55.525Z,22.90
2018-06-11T18:48:24.385Z,22.80
2018-06-11T18:50:52.564Z,22.70
2018-06-11T18:53:20.754Z,22.70
2018-06-11T18:55:48.981Z,22.70
2018-06-11T18:58:17.116Z,22.60
2018-06-11T19:00:45.551Z,22.50
2018-06-11T19:03:13.809Z,22.40
2018-06-11T19:05:42.234Z,22.40
2018-06-11T19:08:10.682Z,22.40
2018-06-11T19:10:39.156Z,22.50
2018-06-11T19:13:07.463Z,22.40
2018-06-11T19:15:35.752Z,22.40
2018-06-11T19:18:04.022Z,22.30
2018-06-11T19:20:32.322Z,22.30
2018-06-11T19:23:00.593Z,22.20
2018-06-11T19:25:29.486Z,22.30
2018-06-11T19:27:57.852Z,22.20
2018-06-11T19:30:26.097Z,22.10
2018-06-11T19:32:54.301Z,22.00
2018-06-11T19:35:22.588Z,22.00
2018-06-11T19:37:51.485Z,21.90
2018-06-11T19:40:19.695Z,21.80
2018-06-11T19:42:49.373Z,21.90
2018-06-11T19:45:17.729Z,21.80
2018-06-11T19:47:46.161Z,21.80
2018-06-11T19:50:14.556Z,21.80
2018-06-11T19:52:43.246Z,21.80
2018-06-11T19:55:12.275Z,21.80
2018-06-11T19:57:40.819Z,21.80
2018-06-11T20:00:10.926Z,21.80
2018-06-11T20:02:39.508Z,21.70
2018-06-11T20:05:07.791Z,21.70
2018-06-11T20:07:35.960Z,21.70
2018-06-11T20:12:33.867Z,21.80
2018-06-11T20:15:02.139Z,21.80
2018-06-11T20:17:31.035Z,21.80
2018-06-11T20:19:59.275Z,21.80
2018-06-11T20:22:27.466Z,21.80
2018-06-11T20:24:56.507Z,21.80
2018-06-11T20:29:53.049Z,21.80
2018-06-11T20:32:21.347Z,21.70
2018-06-11T20:34:49.690Z,21.50
2018-06-11T20:37:17.909Z,21.40
2018-06-11T20:39:46.107Z,21.40
2018-06-11T20:42:14.327Z,21.30
2018-06-11T20:44:42.551Z,21.30
2018-06-11T20:47:11.812Z,21.20
2018-06-11T20:49:40.002Z,21.20
2018-06-11T20:52:08.181Z,21.10
2018-06-11T20:54:37.136Z,21.00
2018-06-11T20:57:05.360Z,20.90
2018-06-11T20:59:34.135Z,20.70
2018-06-11T21:02:02.485Z,20.60
2018-06-11T21:04:30.838Z,20.50
2018-06-11T21:07:00.189Z,20.60
2018-06-11T21:09:28.402Z,20.60
2018-06-11T21:11:56.828Z,20.70
2018-06-11T21:14:25.019Z,20.80
2018-06-11T21:16:53.483Z,20.80
2018-06-11T21:19:21.851Z,20.70
2018-06-11T21:21:52.586Z,20.60
2018-06-11T21:24:20.782Z,20.50
2018-06-11T21:26:49.649Z,20.60
2018-06-11T21:29:17.833Z,20.60
2018-06-11T21:31:46.757Z,20.50
2018-06-11T21:34:15.254Z,20.30
2018-06-11T21:36:44.219Z,20.20
2018-06-11T21:39:12.651Z,20.10
2018-06-11T21:41:40.814Z,20.10
2018-06-11T21:44:09.040Z,20.20
2018-06-11T21:46:37.259Z,20.10
2018-06-11T21:49:05.486Z,20.00
2018-06-11T21:51:33.844Z,20.00
2018-06-11T21:54:03.918Z,19.90
2018-06-11T21:56:33.808Z,19.90
2018-06-11T21:59:02.079Z,19.90
2018-06-11T22:01:30.273Z,19.90
2018-06-11T22:03:58.677Z,19.80
2018-06-11T22:06:27.082Z,19.90
2018-06-11T22:08:55.214Z,19.90
2018-06-11T22:11:23.748Z,19.90
2018-06-11T22:13:52.058Z,19.90
2018-06-11T22:16:20.248Z,19.90
2018-06-11T22:18:48.526Z,19.90
2018-06-11T22:21:16.810Z,19.70
2018-06-11T22:23:44.999Z,19.70
2018-06-11T22:26:14.542Z,19.60
2018-06-11T22:28:42.821Z,19.60
2018-06-11T22:31:10.988Z,19.50
2018-06-11T22:33:39.976Z,19.50
2018-06-11T22:36:08.311Z,19.60
2018-06-11T22:38:36.570Z,19.60
2018-06-11T22:41:04.740Z,19.50
2018-06-11T22:43:32.986Z,19.50
2018-06-11T22:46:01.163Z,19.50
2018-06-11T22:48:29.399Z,19.40
2018-06-11T22:50:58.458Z,19.40
2018-06-11T22:53:26.605Z,19.30
2018-06-11T22:55:54.746Z,19.10
2018-06-11T22:58:23.598Z,19.10
2018-06-11T23:00:51.712Z,19.00
2018-06-11T23:03:20.180Z,19.00
2018-06-11T23:05:48.331Z,19.00
2018-06-11T23:08:16.476Z,19.10
2018-06-11T23:10:45.432Z,19.00
2018-06-11T23:15:41.601Z,18.90
2018-06-11T23:18:09.772Z,18.80
2018-06-11T23:20:37.924Z,18.80
2018-06-11T23:23:06.089Z,18.80
2018-06-11T23:25:34.262Z,18.80
2018-06-11T23:28:02.540Z,18.70
2018-06-11T23:30:30.752Z,18.70
2018-06-11T23:32:58.872Z,18.70
2018-06-11T23:35:27.100Z,18.60
2018-06-11T23:37:55.307Z,18.60
2018-06-11T23:42:51.466Z,18.60
2018-06-11T23:45:19.651Z,18.60
2018-06-11T23:47:47.860Z,18.50
2018-06-11T23:50:16.647Z,18.40
2018-06-11T23:52:44.842Z,18.30
2018-06-11T23:55:12.998Z,18.30
2018-06-11T23:57:41.130Z,18.30
